Time;durP1;ratioP1;P1;durP2;ratioP2;P2;SDS_P1;SDS_P2;PMS_P1;PMS_P2;Temp;Humidity;BMP_temperature;BMP_pressure;BME280_temperature;BME280_humidity;BME280_pressure;Samples;Min_cycle;Max_cycle;Signal;HPM_P1;HPM_P2
2021/06/15 00:00:16;;;;;;;9.47;4.47;;;19.30;99.90;;;;;;5059508;28;20260;-73
2021/06/15 00:02:42;;;;;;;11.80;5.03;;;19.10;99.90;;;;;;5058922;28;20264;-73
2021/06/15 00:05:10;;;;;;;11.80;4.53;;;19.10;99.90;;;;;;5059066;28;20768;-74
2021/06/15 00:07:38;;;;;;;10.73;4.30;;;19.00;99.90;;;;;;5060841;28;20214;-73
2021/06/15 00:10:22;;;;;;;12.23;5.00;;;19.00;99.90;;;;;;5060622;28;20206;-73
2021/06/15 00:12:51;;;;;;;8.87;4.67;;;19.10;99.90;;;;;;5055388;28;20204;-73
2021/06/15 00:15:19;;;;;;;15.27;4.80;;;19.10;99.90;;;;;;5060333;28;20190;-73
2021/06/15 00:17:47;;;;;;;9.97;4.30;;;18.90;99.90;;;;;;5057188;28;20261;-76
2021/06/15 00:20:16;;;;;;;14.13;5.13;;;18.70;99.90;;;;;;5061785;28;20606;-76
2021/06/15 00:22:44;;;;;;;13.33;5.00;;;18.70;99.90;;;;;;5041708;28;21472;-73
2021/06/15 00:25:12;;;;;;;14.17;4.50;;;18.90;99.90;;;;;;5058905;28;20223;-73
2021/06/15 00:27:40;;;;;;;14.50;4.90;;;18.70;99.90;;;;;;5060692;28;20271;-73
2021/06/15 00:30:09;;;;;;;15.73;5.57;;;18.70;99.90;;;;;;5057465;28;20190;-73
2021/06/15 00:32:36;;;;;;;10.10;5.20;;;18.90;99.90;;;;;;5052778;28;20207;-73
2021/06/15 00:35:03;;;;;;;12.67;5.53;;;18.90;99.90;;;;;;5057157;28;20199;-73
2021/06/15 00:37:29;;;;;;;9.03;5.07;;;18.90;99.90;;;;;;5064389;28;20191;-72
2021/06/15 00:39:56;;;;;;;10.80;4.10;;;18.90;99.90;;;;;;5059952;28;20234;-74
2021/06/15 00:42:23;;;;;;;8.60;4.47;;;18.80;99.90;;;;;;5059874;28;20191;-74
2021/06/15 00:44:50;;;;;;;8.57;5.00;;;18.70;99.90;;;;;;5058893;28;20302;-74
2021/06/15 00:47:17;;;;;;;8.50;4.87;;;18.80;99.90;;;;;;5062380;28;20198;-74
2021/06/15 00:49:44;;;;;;;7.00;4.67;;;18.70;99.90;;;;;;5063003;28;20229;-75
2021/06/15 00:52:11;;;;;;;12.83;5.07;;;18.80;99.90;;;;;;5059888;28;20207;-75
2021/06/15 00:54:37;;;;;;;13.17;4.80;;;18.80;99.90;;;;;;5060673;28;20191;-75
2021/06/15 00:57:04;;;;;;;10.27;4.90;;;18.80;99.90;;;;;;5061199;28;20329;-75
2021/06/15 00:59:31;;;;;;;6.40;4.43;;;18.80;99.90;;;;;;5062586;28;20613;-74
2021/06/15 01:01:57;;;;;;;7.13;4.30;;;18.80;99.90;;;;;;5064117;28;20187;-74
2021/06/15 01:04:24;;;;;;;9.33;4.33;;;18.60;99.90;;;;;;5061393;28;20219;-75
2021/06/15 01:07:17;;;;;;;14.43;4.83;;;18.50;99.90;;;;;;5059409;28;20655;-75
2021/06/15 01:10:01;;;;;;;11.53;4.77;;;18.60;99.90;;;;;;5062063;28;20190;-75
2021/06/15 01:13:11;;;;;;;8.10;4.80;;;18.70;99.90;;;;;;5047133;28;20278;-73
2021/06/15 01:15:47;;;;;;;7.60;4.20;;;18.70;99.90;;;;;;5061406;28;21287;-74
2021/06/15 01:18:20;;;;;;;8.17;4.10;;;18.50;99.90;;;;;;5065054;28;20664;-74
2021/06/15 01:21:07;;;;;;;8.60;4.50;;;18.30;99.90;;;;;;5043410;28;20275;-74
2021/06/15 01:23:52;;;;;;;9.93;4.00;;;18.20;99.90;;;;;;5059109;28;20215;-73
2021/06/15 01:26:51;;;;;;;11.10;5.03;;;18.10;99.90;;;;;;5057094;28;20281;-74
2021/06/15 01:29:41;;;;;;;12.37;5.10;;;18.40;99.90;;;;;;5045516;28;20195;-74
2021/06/15 01:32:23;;;;;;;9.87;4.80;;;18.50;99.90;;;;;;5060910;28;20289;-75
2021/06/15 01:34:52;;;;;;;10.73;4.80;;;18.30;99.90;;;;;;5062871;28;20203;-73
2021/06/15 01:37:31;;;;;;;11.47;4.80;;;18.30;99.90;;;;;;5064967;28;20187;-74
2021/06/15 01:40:03;;;;;;;9.50;4.50;;;18.30;99.90;;;;;;5046471;28;20194;-75
2021/06/15 01:42:40;;;;;;;11.50;5.60;;;18.30;99.90;;;;;;5080407;28;20299;-73
2021/06/15 01:45:45;;;;;;;10.67;5.40;;;18.40;99.90;;;;;;5064107;28;20937;-73
2021/06/15 01:48:25;;;;;;;12.17;5.50;;;18.40;99.90;;;;;;5046304;28;20236;-74
2021/06/15 01:50:54;;;;;;;10.20;5.00;;;18.50;99.90;;;;;;5045332;28;20185;-74
2021/06/15 01:53:25;;;;;;;10.73;5.23;;;18.50;99.90;;;;;;5066517;28;20202;-77
2021/06/15 01:55:55;;;;;;;11.90;5.77;;;18.40;99.90;;;;;;5058190;28;20310;-75
2021/06/15 01:58:26;;;;;;;9.53;5.47;;;18.70;99.90;;;;;;5060023;28;20715;-74
2021/06/15 02:00:56;;;;;;;12.50;5.73;;;18.70;99.90;;;;;;5060682;28;20571;-77
2021/06/15 02:03:25;;;;;;;10.83;5.13;;;18.60;99.90;;;;;;5062110;28;20182;-76
2021/06/15 02:05:57;;;;;;;9.93;5.13;;;18.60;99.90;;;;;;5059148;28;20325;-75
2021/06/15 02:08:30;;;;;;;10.23;5.43;;;18.70;99.90;;;;;;5062676;28;20199;-74
2021/06/15 02:10:58;;;;;;;12.40;4.43;;;18.60;99.90;;;;;;5058421;28;20831;-74
2021/06/15 02:13:30;;;;;;;12.00;4.50;;;18.50;99.90;;;;;;5063146;28;20260;-76
2021/06/15 02:16:02;;;;;;;15.00;5.90;;;18.50;99.90;;;;;;5059204;28;20256;-75
2021/06/15 02:18:32;;;;;;;5.17;4.43;;;18.40;99.90;;;;;;5060697;28;20211;-75
2021/06/15 02:21:02;;;;;;;9.57;5.10;;;18.40;99.90;;;;;;5063063;28;20294;-75
2021/06/15 02:23:30;;;;;;;7.73;4.70;;;18.50;99.90;;;;;;5044808;28;20233;-76
2021/06/15 02:26:03;;;;;;;11.20;5.33;;;18.50;99.90;;;;;;5055616;28;20211;-74
2021/06/15 02:28:29;;;;;;;11.87;5.50;;;18.60;99.90;;;;;;5059177;28;20376;-75
2021/06/15 02:30:59;;;;;;;7.30;5.07;;;18.50;99.90;;;;;;5056447;28;20979;-75
2021/06/15 02:33:35;;;;;;;9.47;5.13;;;18.30;99.90;;;;;;5056028;28;20211;-75
2021/06/15 02:36:14;;;;;;;7.83;5.00;;;18.10;99.90;;;;;;5061583;28;20207;-76
2021/06/15 02:39:02;;;;;;;14.30;5.70;;;18.00;99.90;;;;;;5063944;28;20637;-76
2021/06/15 02:41:34;;;;;;;10.10;4.97;;;17.90;99.90;;;;;;5060658;28;20210;-76
2021/06/15 02:44:04;;;;;;;9.63;4.90;;;18.00;99.90;;;;;;5061775;28;20237;-76
2021/06/15 02:46:34;;;;;;;13.10;5.40;;;18.20;99.90;;;;;;5058740;28;20643;-75
2021/06/15 02:49:10;;;;;;;8.77;4.93;;;18.30;99.90;;;;;;5057684;28;20207;-76
2021/06/15 02:51:47;;;;;;;8.60;5.33;;;18.30;99.90;;;;;;5055222;28;20207;-76
2021/06/15 02:54:30;;;;;;;9.37;5.00;;;18.40;99.90;;;;;;5061718;28;20214;-76
2021/06/15 02:57:00;;;;;;;13.93;4.97;;;18.40;99.90;;;;;;5044958;28;20217;-76
2021/06/15 02:59:26;;;;;;;12.13;5.30;;;18.40;99.90;;;;;;5063403;28;20214;-75
2021/06/15 03:01:54;;;;;;;9.93;5.13;;;18.50;99.90;;;;;;5042704;28;20207;-75
2021/06/15 03:04:21;;;;;;;10.07;5.00;;;18.40;99.90;;;;;;5060841;28;20352;-75
2021/06/15 03:06:47;;;;;;;10.50;5.17;;;18.60;99.90;;;;;;5055737;28;20209;-75
2021/06/15 03:09:14;;;;;;;9.67;4.63;;;18.60;99.90;;;;;;5061029;28;20249;-75
2021/06/15 03:12:22;;;;;;;11.17;5.60;;;18.60;99.90;;;;;;5044483;28;20203;-75
2021/06/15 03:15:05;;;;;;;10.53;4.93;;;18.60;99.90;;;;;;5068731;28;20313;-75
2021/06/15 03:17:35;;;;;;;10.10;5.23;;;18.60;99.90;;;;;;5042200;28;20666;-75
2021/06/15 03:20:09;;;;;;;11.00;5.93;;;18.60;99.90;;;;;;5060591;28;20222;-75
2021/06/15 03:23:07;;;;;;;10.97;4.90;;;18.60;99.90;;;;;;5042014;28;20878;-75
2021/06/15 03:25:36;;;;;;;12.57;4.90;;;18.60;99.90;;;;;;5058448;28;20408;-74
2021/06/15 03:28:31;;;;;;;9.70;5.00;;;18.70;99.90;;;;;;5043314;28;20203;-75
2021/06/15 03:31:00;;;;;;;7.03;4.90;;;18.70;99.90;;;;;;5058960;28;20671;-75
2021/06/15 03:33:27;;;;;;;10.47;5.20;;;18.70;99.90;;;;;;5059258;28;20215;-75
2021/06/15 03:35:59;;;;;;;10.43;5.37;;;18.70;99.90;;;;;;5060794;28;22378;-75
2021/06/15 03:38:31;;;;;;;10.23;5.00;;;18.90;99.90;;;;;;5057404;28;20255;-74
2021/06/15 03:41:01;;;;;;;17.53;5.40;;;19.00;99.90;;;;;;5054888;28;20263;-75
2021/06/15 03:43:31;;;;;;;10.30;5.50;;;19.00;99.90;;;;;;5060828;28;20302;-74
2021/06/15 03:46:09;;;;;;;13.07;5.30;;;19.00;99.90;;;;;;5075667;28;20396;-74
2021/06/15 03:48:43;;;;;;;11.03;5.93;;;19.10;99.90;;;;;;5058220;28;20202;-75
2021/06/15 03:51:22;;;;;;;8.23;5.33;;;19.00;99.90;;;;;;5038877;28;20229;-74
2021/06/15 03:53:49;;;;;;;9.70;4.93;;;19.00;99.90;;;;;;5056389;28;20214;-75
2021/06/15 03:56:17;;;;;;;9.23;4.87;;;18.90;99.90;;;;;;5042716;28;20209;-75
2021/06/15 03:58:46;;;;;;;14.23;5.70;;;18.90;99.90;;;;;;5057507;28;20558;-75
2021/06/15 04:01:16;;;;;;;10.03;5.10;;;19.00;99.90;;;;;;5056200;28;20250;-75
2021/06/15 04:03:45;;;;;;;9.20;4.60;;;19.10;99.90;;;;;;5053511;28;20668;-75
2021/06/15 04:06:13;;;;;;;8.13;4.80;;;19.20;99.90;;;;;;5052378;28;20215;-76
2021/06/15 04:08:41;;;;;;;11.67;4.80;;;19.20;99.90;;;;;;5060469;28;20210;-77
2021/06/15 04:11:10;;;;;;;10.33;4.80;;;19.20;99.90;;;;;;5051343;28;20223;-77
2021/06/15 04:13:41;;;;;;;7.90;4.50;;;19.30;99.90;;;;;;5041986;28;20256;-76
2021/06/15 04:16:12;;;;;;;7.93;4.20;;;19.40;99.90;;;;;;5055905;28;20241;-77
2021/06/15 04:18:43;;;;;;;8.37;4.30;;;19.50;99.90;;;;;;5056662;28;20215;-75
2021/06/15 04:21:12;;;;;;;10.40;4.67;;;19.50;99.90;;;;;;5068717;28;20231;-74
2021/06/15 04:23:54;;;;;;;7.37;4.43;;;19.60;99.90;;;;;;5061163;28;20223;-74
2021/06/15 04:26:21;;;;;;;7.93;4.30;;;19.70;99.90;;;;;;5047171;28;20615;-74
2021/06/15 04:28:47;;;;;;;6.13;4.00;;;19.90;99.90;;;;;;5047769;28;20200;-74
2021/06/15 04:31:17;;;;;;;11.63;4.93;;;20.00;99.90;;;;;;5064780;28;20226;-72
2021/06/15 04:33:49;;;;;;;7.50;4.17;;;20.10;99.90;;;;;;5064579;28;20233;-75
2021/06/15 04:36:19;;;;;;;12.33;4.57;;;20.10;99.90;;;;;;5058468;28;20666;-71
2021/06/15 04:38:54;;;;;;;9.23;4.23;;;20.20;99.90;;;;;;5052766;28;20223;-73
2021/06/15 04:41:29;;;;;;;7.87;3.97;;;20.30;99.90;;;;;;5061438;28;20210;-73
2021/06/15 04:44:02;;;;;;;5.90;4.10;;;20.30;99.90;;;;;;5058173;28;20333;-72
2021/06/15 04:46:46;;;;;;;8.30;4.53;;;20.40;99.90;;;;;;5058789;28;20202;-72
2021/06/15 04:49:46;;;;;;;7.00;4.20;;;20.70;99.90;;;;;;5056088;28;20212;-71
2021/06/15 04:52:19;;;;;;;7.10;3.70;;;20.90;99.90;;;;;;5058337;28;20215;-72
2021/06/15 04:54:49;;;;;;;8.70;4.10;;;21.10;99.90;;;;;;5059052;28;20263;-71
2021/06/15 04:57:38;;;;;;;7.90;4.20;;;21.00;99.90;;;;;;5053884;28;20264;-72
2021/06/15 05:00:06;;;;;;;11.30;4.73;;;21.00;99.90;;;;;;5058241;28;20218;-72
2021/06/15 05:02:39;;;;;;;9.63;4.40;;;21.10;99.90;;;;;;5040777;28;20674;-72
2021/06/15 05:05:09;;;;;;;13.27;4.10;;;21.10;99.90;;;;;;5057557;28;20726;-72
2021/06/15 05:07:35;;;;;;;9.20;3.93;;;21.20;99.90;;;;;;5054178;28;20231;-70
2021/06/15 05:10:05;;;;;;;10.87;4.30;;;21.30;99.90;;;;;;5040322;28;20221;-71
2021/06/15 05:12:40;;;;;;;10.33;3.83;;;21.30;99.90;;;;;;5058349;28;20256;-71
2021/06/15 05:15:11;;;;;;;24.67;4.97;;;21.20;99.90;;;;;;5056368;28;20238;-73
2021/06/15 05:17:45;;;;;;;7.10;3.47;;;21.30;99.90;;;;;;5044651;28;20207;-71
2021/06/15 05:20:14;;;;;;;8.40;3.90;;;21.60;99.90;;;;;;5057712;28;20865;-72
2021/06/15 05:22:57;;;;;;;6.37;3.90;;;21.70;99.90;;;;;;5053971;28;20209;-72
2021/06/15 05:25:24;;;;;;;7.67;4.23;;;21.70;99.90;;;;;;5055954;28;20707;-71
2021/06/15 05:27:52;;;;;;;15.07;4.10;;;21.60;99.90;;;;;;5047930;28;20211;-72
2021/06/15 05:30:19;;;;;;;9.17;4.17;;;21.70;99.90;;;;;;5057339;28;20215;-71
2021/06/15 05:32:45;;;;;;;9.93;3.90;;;21.70;99.90;;;;;;5056617;28;20307;-71
2021/06/15 05:35:12;;;;;;;10.73;4.30;;;21.60;99.90;;;;;;5053597;28;20266;-71
2021/06/15 05:37:42;;;;;;;10.57;4.47;;;21.50;99.90;;;;;;5042552;28;20211;-74
2021/06/15 05:40:12;;;;;;;8.07;4.47;;;21.50;99.90;;;;;;5080047;28;20230;-73
2021/06/15 05:42:38;;;;;;;9.57;4.33;;;21.40;99.90;;;;;;5056150;28;20230;-71
2021/06/15 05:45:07;;;;;;;10.07;4.30;;;21.40;99.90;;;;;;5048751;28;20215;-73
2021/06/15 05:47:35;;;;;;;9.20;3.67;;;21.60;99.90;;;;;;5041927;28;20541;-72
2021/06/15 05:50:06;;;;;;;8.93;3.57;;;21.80;99.90;;;;;;5057406;28;20248;-73
2021/06/15 05:52:33;;;;;;;14.00;4.33;;;21.80;99.90;;;;;;5059427;28;20202;-71
2021/06/15 05:55:01;;;;;;;9.80;3.37;;;21.70;99.90;;;;;;5057324;28;20224;-71
2021/06/15 05:57:30;;;;;;;9.10;3.73;;;21.80;99.90;;;;;;5084618;28;20211;-73
2021/06/15 05:59:58;;;;;;;7.97;3.50;;;21.90;99.90;;;;;;5038656;28;20264;-73
2021/06/15 06:02:26;;;;;;;9.57;3.50;;;21.90;99.90;;;;;;5055420;28;20210;-74
2021/06/15 06:10:08;;;;;;;7.53;3.57;;;22.20;99.90;;;;;;5052429;28;20211;-74
2021/06/15 06:12:34;;;;;;;6.77;3.53;;;22.20;99.90;;;;;;5068046;28;20203;-74
2021/06/15 06:15:01;;;;;;;7.97;3.53;;;22.30;99.90;;;;;;5053776;28;20218;-71
2021/06/15 06:17:28;;;;;;;7.50;3.63;;;22.30;99.90;;;;;;5053974;28;20315;-74
2021/06/15 06:19:54;;;;;;;9.03;3.67;;;22.30;99.90;;;;;;5054516;28;20268;-74
2021/06/15 06:22:24;;;;;;;5.93;3.10;;;22.30;99.90;;;;;;5059334;28;20495;-74
2021/06/15 06:24:53;;;;;;;7.37;3.37;;;22.50;99.90;;;;;;5056246;28;20219;-74
2021/06/15 06:27:19;;;;;;;7.03;2.80;;;22.60;99.90;;;;;;5054846;28;20210;-74
2021/06/15 06:29:45;;;;;;;11.57;3.10;;;22.70;99.90;;;;;;5052552;28;20696;-74
2021/06/15 06:32:11;;;;;;;5.43;2.97;;;22.70;99.90;;;;;;5055988;28;20219;-74
2021/06/15 06:34:37;;;;;;;6.87;2.90;;;22.70;99.90;;;;;;5055141;28;20246;-74
2021/06/15 06:37:05;;;;;;;5.27;2.77;;;22.70;99.90;;;;;;5053726;28;20207;-74
2021/06/15 06:39:31;;;;;;;4.10;2.87;;;22.90;99.90;;;;;;5039422;28;20242;-74
2021/06/15 06:41:57;;;;;;;7.17;3.00;;;23.00;99.90;;;;;;5057658;28;20670;-73
2021/06/15 06:44:24;;;;;;;10.23;2.93;;;23.00;99.90;;;;;;5054289;28;20247;-73
2021/06/15 06:46:50;;;;;;;8.57;3.00;;;23.10;99.90;;;;;;5053632;28;20212;-73
2021/06/15 06:49:16;;;;;;;27.83;4.43;;;23.00;99.90;;;;;;5051878;28;20207;-73
2021/06/15 06:51:43;;;;;;;4.70;2.77;;;23.10;99.90;;;;;;5039482;28;20207;-74
2021/06/15 06:54:09;;;;;;;10.67;3.23;;;23.00;99.90;;;;;;5052267;28;20206;-74
2021/06/15 06:56:36;;;;;;;7.53;2.90;;;23.20;99.90;;;;;;5050217;28;20227;-73
2021/06/15 06:59:02;;;;;;;5.10;2.83;;;23.40;99.90;;;;;;5049290;28;20899;-73
2021/06/15 07:01:29;;;;;;;5.00;2.93;;;23.40;99.90;;;;;;5041056;28;20207;-73
2021/06/15 07:03:56;;;;;;;6.80;2.60;;;23.50;99.90;;;;;;5056246;28;20210;-73
2021/06/15 07:06:22;;;;;;;5.57;2.60;;;23.50;99.90;;;;;;5056665;28;20206;-73
2021/06/15 07:08:48;;;;;;;7.20;2.63;;;23.50;99.90;;;;;;5072881;28;20222;-73
2021/06/15 07:11:15;;;;;;;7.90;2.50;;;23.80;99.90;;;;;;5038315;28;20667;-73
2021/06/15 07:13:42;;;;;;;6.77;2.47;;;23.70;99.90;;;;;;5056122;28;20238;-72
2021/06/15 07:16:08;;;;;;;5.40;2.83;;;23.80;99.90;;;;;;5054106;28;20818;-72
2021/06/15 07:18:36;;;;;;;7.37;2.70;;;24.00;99.90;;;;;;5053504;28;20210;-72
2021/06/15 07:21:08;;;;;;;4.05;2.13;;;24.10;99.90;;;;;;5056129;28;20214;-72
2021/06/15 07:23:35;;;;;;;5.87;2.70;;;24.20;99.90;;;;;;5055137;28;20486;-72
2021/06/15 07:26:02;;;;;;;3.53;2.58;;;24.10;99.90;;;;;;5059045;28;20219;-73
2021/06/15 07:28:28;;;;;;;4.73;2.50;;;24.10;99.90;;;;;;5040765;28;20655;-72
2021/06/15 07:30:55;;;;;;;7.28;3.13;;;24.20;99.90;;;;;;5039083;28;20194;-72
2021/06/15 07:33:21;;;;;;;4.80;2.27;;;24.30;99.90;;;;;;5054228;28;20214;-72
2021/06/15 07:35:47;;;;;;;9.13;2.40;;;24.30;99.90;;;;;;5055875;28;20229;-72
2021/06/15 07:38:14;;;;;;;11.55;2.50;;;24.40;99.90;;;;;;5057572;28;20206;-72
2021/06/15 07:40:40;;;;;;;6.57;2.53;;;24.50;99.90;;;;;;5056405;28;20214;-71
2021/06/15 07:43:07;;;;;;;5.28;2.47;;;24.60;99.90;;;;;;5053695;28;20214;-73
2021/06/15 07:45:37;;;;;;;4.73;2.17;;;24.70;99.90;;;;;;5055808;28;20260;-74
2021/06/15 07:48:04;;;;;;;4.78;2.25;;;24.70;99.90;;;;;;5051908;28;20214;-74
2021/06/15 07:50:31;;;;;;;4.70;2.07;;;24.70;99.90;;;;;;5040408;28;20218;-74
2021/06/15 07:52:58;;;;;;;9.63;3.10;;;24.90;99.90;;;;;;5060100;28;20223;-73
2021/06/15 07:55:24;;;;;;;6.20;2.47;;;24.90;99.90;;;;;;5060867;28;20222;-74
2021/06/15 07:57:51;;;;;;;5.53;2.50;;;25.00;99.90;;;;;;5063222;28;20559;-73
2021/06/15 08:00:19;;;;;;;4.55;2.30;;;25.10;99.90;;;;;;5057765;28;20293;-73
2021/06/15 08:02:47;;;;;;;3.55;2.25;;;25.10;99.90;;;;;;5059451;28;20199;-73
2021/06/15 08:05:14;;;;;;;4.90;2.40;;;25.20;99.90;;;;;;5061283;28;20271;-73
2021/06/15 08:07:44;;;;;;;5.70;2.75;;;25.10;99.90;;;;;;5056866;28;20204;-72
2021/06/15 08:10:11;;;;;;;5.82;2.30;;;25.10;99.90;;;;;;5058931;28;20211;-73
2021/06/15 08:12:37;;;;;;;7.05;2.38;;;25.30;99.90;;;;;;5058600;28;20198;-73
2021/06/15 08:15:05;;;;;;;4.03;2.35;;;25.30;99.90;;;;;;5061394;28;20202;-72
2021/06/15 08:17:32;;;;;;;5.00;2.38;;;25.30;99.90;;;;;;5044955;28;20211;-72
2021/06/15 08:19:58;;;;;;;5.80;2.35;;;25.40;99.90;;;;;;5062253;28;20237;-73
2021/06/15 08:22:25;;;;;;;7.40;2.70;;;25.40;99.90;;;;;;5058085;28;20230;-73
2021/06/15 08:24:51;;;;;;;8.50;2.50;;;25.40;99.90;;;;;;5058769;28;20618;-72
2021/06/15 08:27:18;;;;;;;5.82;2.50;;;25.60;99.90;;;;;;5058004;28;20206;-74
2021/06/15 08:29:44;;;;;;;13.55;3.03;;;25.70;99.90;;;;;;5059128;28;21247;-73
2021/06/15 08:32:10;;;;;;;6.50;2.35;;;25.70;99.90;;;;;;5046277;28;20241;-72
2021/06/15 08:34:37;;;;;;;50.88;4.50;;;25.70;99.90;;;;;;5055799;28;20200;-74
2021/06/15 08:37:04;;;;;;;9.55;2.47;;;25.60;99.90;;;;;;5059752;28;20218;-73
2021/06/15 08:39:31;;;;;;;4.70;2.30;;;25.70;99.90;;;;;;5063083;28;20549;-74
2021/06/15 08:41:57;;;;;;;10.35;8.70;;;25.60;99.90;;;;;;5052887;28;20202;-73
2021/06/15 08:44:24;;;;;;;5.47;2.47;;;25.60;99.90;;;;;;5059443;28;20215;-73
2021/06/15 08:46:50;;;;;;;5.70;2.38;;;25.40;99.90;;;;;;5055966;28;20191;-73
2021/06/15 08:49:17;;;;;;;5.22;2.10;;;25.50;99.90;;;;;;5037470;28;20190;-72
2021/06/15 08:51:44;;;;;;;6.78;2.33;;;25.80;99.90;;;;;;5049908;28;20222;-72
2021/06/15 08:54:18;;;;;;;6.18;2.10;;;25.90;99.90;;;;;;5056440;28;20686;-73
2021/06/15 08:56:45;;;;;;;2.88;2.00;;;26.20;99.90;;;;;;5063155;28;20206;-71
2021/06/15 08:59:29;;;;;;;9.23;2.25;;;26.20;99.90;;;;;;5056877;28;20356;-71
2021/06/15 09:02:07;;;;;;;4.57;2.15;;;26.30;99.90;;;;;;5041529;28;20180;-71
2021/06/15 09:04:35;;;;;;;7.20;2.33;;;26.20;99.90;;;;;;5054849;28;20225;-72
2021/06/15 09:07:04;;;;;;;2.58;2.00;;;26.00;99.90;;;;;;5056947;28;20203;-73
2021/06/15 09:09:50;;;;;;;7.38;1.90;;;26.40;99.90;;;;;;5061683;28;20232;-71
2021/06/15 09:12:21;;;;;;;4.20;1.70;;;26.70;99.90;;;;;;5056856;28;20309;-73
2021/06/15 09:14:57;;;;;;;3.17;2.03;;;26.50;99.90;;;;;;5064090;28;20735;-73
2021/06/15 09:17:27;;;;;;;2.70;1.80;;;26.70;99.90;;;;;;5042124;28;20182;-72
2021/06/15 09:20:21;;;;;;;2.80;2.05;;;26.80;99.90;;;;;;5059483;28;20582;-72
2021/06/15 09:23:18;;;;;;;6.22;2.42;;;27.00;99.90;;;;;;5055929;28;20222;-72
2021/06/15 09:25:49;;;;;;;4.40;2.00;;;27.30;99.90;;;;;;5039167;28;20234;-74
2021/06/15 09:28:22;;;;;;;3.50;2.05;;;27.40;99.90;;;;;;5061297;28;20664;-73
2021/06/15 09:31:08;;;;;;;4.75;2.03;;;27.40;99.90;;;;;;5060908;28;20563;-73
2021/06/15 09:33:48;;;;;;;2.42;1.80;;;27.40;99.90;;;;;;5059069;28;20644;-74
2021/06/15 09:36:14;;;;;;;4.50;2.00;;;27.70;99.90;;;;;;5057712;28;20190;-73
2021/06/15 09:39:04;;;;;;;5.78;2.13;;;27.60;99.90;;;;;;5043924;28;21564;-74
2021/06/15 09:41:45;;;;;;;5.05;2.08;;;27.90;99.90;;;;;;5050087;28;20875;-74
2021/06/15 09:44:31;;;;;;;3.75;1.90;;;27.80;99.90;;;;;;5056054;28;20238;-75
2021/06/15 09:47:07;;;;;;;3.33;1.73;;;27.70;99.90;;;;;;5060387;28;20275;-72
2021/06/15 09:49:43;;;;;;;1.92;1.70;;;27.80;99.90;;;;;;5059518;28;20207;-72
2021/06/15 09:52:26;;;;;;;3.65;1.75;;;27.70;99.90;;;;;;5058994;28;20281;-73
2021/06/15 09:55:07;;;;;;;2.25;1.73;;;27.90;99.90;;;;;;5027364;28;20218;-74
2021/06/15 09:57:45;;;;;;;3.13;2.10;;;28.20;99.80;;;;;;5039500;28;20230;-74
2021/06/15 10:00:20;;;;;;;5.05;2.08;;;28.20;98.30;;;;;;5056622;28;20663;-74
2021/06/15 10:03:02;;;;;;;5.32;1.98;;;28.10;98.40;;;;;;5052788;28;20217;-73
2021/06/15 10:05:36;;;;;;;2.90;1.80;;;28.20;98.90;;;;;;5057144;28;20211;-73
2021/06/15 10:08:12;;;;;;;5.57;2.05;;;28.50;97.50;;;;;;5045817;28;20244;-74
2021/06/15 10:10:43;;;;;;;3.58;1.95;;;28.30;98.10;;;;;;5057249;28;20205;-71
2021/06/15 10:13:10;;;;;;;3.05;1.80;;;28.30;98.70;;;;;;5057171;28;20728;-72
2021/06/15 10:15:39;;;;;;;3.83;1.70;;;28.30;98.60;;;;;;5057941;28;20197;-74
2021/06/15 10:18:06;;;;;;;3.65;2.00;;;28.40;99.10;;;;;;5059493;28;20670;-73
2021/06/15 10:20:35;;;;;;;3.33;2.10;;;28.50;98.20;;;;;;5042788;28;20187;-74
2021/06/15 10:23:04;;;;;;;2.72;2.00;;;28.30;98.60;;;;;;5075577;28;20207;-73
2021/06/15 10:25:33;;;;;;;6.13;1.90;;;28.20;99.10;;;;;;5061581;28;20222;-71
2021/06/15 10:28:11;;;;;;;6.80;1.90;;;28.30;99.90;;;;;;5059465;28;20549;-72
2021/06/15 10:30:42;;;;;;;4.72;1.60;;;28.30;99.40;;;;;;5052129;28;20286;-73
2021/06/15 10:33:21;;;;;;;7.07;2.15;;;28.10;97.10;;;;;;5062993;28;20222;-71
2021/06/15 10:35:58;;;;;;;5.82;2.00;;;28.10;99.90;;;;;;5051213;28;20285;-71
2021/06/15 10:38:30;;;;;;;3.42;2.08;;;27.80;99.90;;;;;;5059569;28;20186;-71
2021/06/15 10:41:02;;;;;;;3.20;1.90;;;27.90;99.90;;;;;;5033748;28;20310;-75
2021/06/15 10:43:37;;;;;;;3.35;1.85;;;27.80;99.90;;;;;;5061075;28;20193;-73
2021/06/15 10:46:36;;;;;;;6.75;1.92;;;27.80;99.00;;;;;;5050401;28;20801;-73
2021/06/15 10:49:10;;;;;;;3.78;2.22;;;27.90;99.90;;;;;;5038535;28;20183;-72
2021/06/15 10:51:43;;;;;;;10.55;2.33;;;27.80;99.90;;;;;;5061319;28;20315;-73
2021/06/15 10:54:45;;;;;;;4.45;2.15;;;27.90;99.90;;;;;;5056548;28;20187;-73
2021/06/15 10:57:30;;;;;;;7.35;2.28;;;28.00;99.90;;;;;;5041662;28;20190;-72
2021/06/15 10:59:58;;;;;;;42.13;3.50;;;27.70;99.90;;;;;;5058408;28;20751;-74
2021/06/15 11:02:31;;;;;;;10.07;2.42;;;27.50;99.90;;;;;;5056766;28;20642;-73
2021/06/15 11:05:18;;;;;;;7.18;2.20;;;27.60;99.90;;;;;;5058957;28;20242;-74
2021/06/15 11:07:45;;;;;;;3.80;2.40;;;27.50;99.90;;;;;;5050241;28;20330;-75
2021/06/15 11:10:12;;;;;;;4.10;2.08;;;27.60;99.90;;;;;;5053021;28;20195;-73
2021/06/15 11:12:48;;;;;;;11.13;2.65;;;27.50;99.90;;;;;;5056928;28;20190;-72
2021/06/15 11:15:21;;;;;;;3.42;2.20;;;27.30;99.90;;;;;;5057785;28;20190;-74
2021/06/15 11:17:55;;;;;;;7.20;2.50;;;27.10;99.90;;;;;;5058642;28;20817;-74
2021/06/15 11:20:40;;;;;;;3.83;2.10;;;27.10;99.90;;;;;;5038530;28;20335;-74
2021/06/15 11:23:13;;;;;;;2.53;2.00;;;27.20;99.90;;;;;;5033584;28;20227;-73
2021/06/15 11:26:12;;;;;;;4.63;2.30;;;27.20;99.90;;;;;;5036905;28;20222;-74
2021/06/15 11:28:45;;;;;;;3.17;2.25;;;27.20;99.90;;;;;;5059020;28;20540;-74
2021/06/15 11:31:18;;;;;;;4.63;2.17;;;27.40;99.90;;;;;;5037379;28;20671;-74
2021/06/15 11:34:14;;;;;;;4.78;2.38;;;27.50;99.90;;;;;;5046600;28;20195;-73
2021/06/15 11:36:55;;;;;;;4.45;2.10;;;27.40;99.90;;;;;;5050626;28;20285;-74
2021/06/15 11:39:29;;;;;;;4.10;2.40;;;27.60;99.90;;;;;;5058013;28;20836;-74
2021/06/15 11:42:21;;;;;;;9.45;2.20;;;27.50;99.90;;;;;;5038573;28;20193;-74
2021/06/15 11:45:14;;;;;;;4.35;2.13;;;27.50;99.90;;;;;;5050429;28;20230;-74
2021/06/15 11:47:55;;;;;;;8.00;2.38;;;27.60;99.90;;;;;;5052173;28;20194;-74
2021/06/15 11:50:27;;;;;;;4.88;2.60;;;27.50;99.90;;;;;;5071843;28;20187;-74
2021/06/15 11:52:57;;;;;;;4.80;2.28;;;27.30;99.90;;;;;;5043533;28;20203;-74
2021/06/15 11:56:07;;;;;;;4.57;2.15;;;27.30;99.90;;;;;;5059128;28;20183;-73
2021/06/15 11:58:54;;;;;;;4.60;2.35;;;27.10;99.90;;;;;;5055854;28;20191;-74
2021/06/15 12:01:22;;;;;;;10.52;2.72;;;27.30;99.90;;;;;;5053905;28;20222;-72
2021/06/15 12:03:50;;;;;;;4.93;2.10;;;27.20;99.90;;;;;;5042165;28;20706;-73
2021/06/15 12:06:20;;;;;;;4.38;2.40;;;27.00;99.90;;;;;;5035682;28;20965;-74
2021/06/15 12:08:49;;;;;;;7.25;2.45;;;27.00;99.90;;;;;;5071525;28;20742;-72
2021/06/15 12:11:19;;;;;;;10.25;2.63;;;27.00;99.90;;;;;;5031110;28;20203;-74
2021/06/15 12:13:50;;;;;;;5.05;2.30;;;26.90;99.90;;;;;;5055380;28;20174;-72
2021/06/15 12:16:25;;;;;;;6.32;2.28;;;26.60;99.90;;;;;;5049334;28;20206;-73
2021/06/15 12:18:57;;;;;;;5.13;2.30;;;26.20;99.90;;;;;;5058704;28;20198;-72
2021/06/15 12:21:32;;;;;;;5.25;2.35;;;26.10;99.90;;;;;;5054363;28;20211;-72
2021/06/15 12:24:07;;;;;;;7.78;2.33;;;26.20;99.90;;;;;;5042386;28;20214;-74
2021/06/15 12:26:46;;;;;;;4.93;2.25;;;26.20;99.90;;;;;;5042203;28;20210;-73
2021/06/15 12:29:16;;;;;;;5.53;2.53;;;26.00;99.90;;;;;;5056840;28;20191;-74
2021/06/15 12:31:49;;;;;;;3.90;2.30;;;25.80;99.90;;;;;;5060477;28;20186;-74
2021/06/15 12:34:21;;;;;;;6.60;2.50;;;25.30;99.90;;;;;;5084646;28;20191;-74
2021/06/15 12:37:02;;;;;;;5.28;2.45;;;25.20;99.90;;;;;;5061643;28;20202;-72
2021/06/15 12:39:34;;;;;;;5.18;2.40;;;25.30;99.90;;;;;;5041793;28;20182;-73
2021/06/15 12:42:13;;;;;;;4.50;2.30;;;24.90;99.90;;;;;;5065267;28;20187;-73
2021/06/15 12:44:42;;;;;;;4.65;2.20;;;25.00;99.90;;;;;;5058006;28;20758;-74
2021/06/15 12:47:14;;;;;;;6.10;2.60;;;25.10;99.90;;;;;;5043818;28;20198;-72
2021/06/15 12:49:57;;;;;;;5.00;2.88;;;25.10;99.90;;;;;;5060721;28;20262;-73
2021/06/15 12:52:35;;;;;;;4.53;2.40;;;25.10;99.90;;;;;;5062863;28;20186;-73
2021/06/15 12:55:17;;;;;;;3.75;2.45;;;24.90;99.90;;;;;;5047146;28;20321;-74
2021/06/15 12:58:03;;;;;;;5.38;2.45;;;24.70;99.90;;;;;;5045461;28;20206;-74
2021/06/15 13:00:31;;;;;;;6.05;2.40;;;24.60;99.90;;;;;;5047259;28;20198;-74
2021/06/15 13:03:11;;;;;;;4.38;2.67;;;24.60;99.90;;;;;;5061181;28;20222;-72
2021/06/15 13:05:37;;;;;;;7.70;2.83;;;24.60;99.90;;;;;;5063147;28;20246;-74
2021/06/15 13:08:05;;;;;;;4.70;2.80;;;24.50;99.90;;;;;;5059040;28;20179;-74
2021/06/15 13:10:32;;;;;;;5.35;2.50;;;24.40;99.90;;;;;;5007462;28;20212;-74
2021/06/15 13:13:04;;;;;;;5.57;2.45;;;24.40;99.90;;;;;;5063323;28;20198;-73
2021/06/15 13:15:33;;;;;;;3.90;2.20;;;24.60;99.90;;;;;;5047259;28;20640;-74